FAVF weather

Verborgenfontei Airport
Verborgenfontein, Northern Cape, South Africa

Public forecast

Using degrees Celsius for public forecast. Weather courtesy of forecast.io.

METAR (pilot weather report)

Report is more than 6 hours old.

Closest report is De Aar Military Airport, 32.3 nm (59.8 km) N. Retrieved 2019/08/20 08:47 UTC (15 hours ago):

FADY 200847Z 11014KT CAVOK 14/M05 Q1033

TAF (pilot weather forecast)

Forecast is more than 12 hours old.

Closest forecast is Moshoeshoe I International Airport, 219.3 nm (406.1 km) ENE. Retrieved 2019/08/15 06:24 UTC (6 days ago):

TAF TAF FXMM 150400Z 1506/1606 30004KT 9999 NSC FM150800 34008KT CAVOK FM151600 00000KT